Time;durP1;ratioP1;P1;durP2;ratioP2;P2;SDS_P1;SDS_P2;PMS_P1;PMS_P2;Temp;Humidity;BMP_temperature;BMP_pressure;BME280_temperature;BME280_humidity;BME280_pressure;Samples;Min_cycle;Max_cycle;Signal;HPM_P1;HPM_P2
2021/01/17 09:00:16;;;;;;;13.20;7.40;;;;;;;-0.45;61.35;97770.81;11702939;24;20041;31
2021/01/17 09:12:11;;;;;;;12.40;8.38;;;;;;;-0.01;61.39;97779.66;10039032;24;20516;-80
2021/01/17 09:17:34;;;;;;;11.70;8.30;;;;;;;0.15;61.27;97795.13;9969272;29;20091;-80
2021/01/17 09:23:02;;;;;;;9.82;7.05;;;;;;;0.12;60.81;97793.44;9980851;29;20062;-79
2021/01/17 09:28:30;;;;;;;10.32;7.45;;;;;;;0.24;60.91;97799.47;9996883;29;20500;-80
2021/01/17 09:33:53;;;;;;;10.48;7.13;;;;;;;0.26;60.57;97802.44;9973545;29;20074;-81
2021/01/17 09:39:13;;;;;;;8.82;6.82;;;;;;;0.27;60.96;97809.41;9969130;29;20085;-80
2021/01/17 09:44:36;;;;;;;10.07;7.70;;;;;;;0.44;60.04;97818.13;9977496;29;20070;-79
2021/01/17 09:50:09;;;;;;;10.57;6.82;;;;;;;0.80;60.23;97812.28;9987995;29;20199;-80
2021/01/17 09:55:31;;;;;;;8.65;6.40;;;;;;;1.39;60.12;97819.16;9973123;29;20066;-80
2021/01/17 10:00:54;;;;;;;10.32;6.30;;;;;;;1.69;59.28;97812.53;9982297;29;20070;-78
2021/01/17 10:06:17;;;;;;;8.63;6.22;;;;;;;1.98;59.20;97811.38;9973107;29;20149;-76
2021/01/17 10:11:37;;;;;;;9.27;6.55;;;;;;;2.14;59.04;97814.28;9985095;29;20069;-76
2021/01/17 10:17:02;;;;;;;9.80;6.30;;;;;;;2.07;58.57;97823.22;9957887;29;20586;-77
2021/01/17 10:22:22;;;;;;;;;;;;;;;1.88;58.13;97817.88;9970742;29;20066;-77
2021/01/17 10:27:41;;;;;;;8.73;5.60;;;;;;;1.80;58.34;97814.28;9969951;29;19933;-76
2021/01/17 10:33:06;;;;;;;8.48;5.97;;;;;;;1.98;58.44;97825.16;9944897;29;20073;-75
2021/01/17 10:38:25;;;;;;;9.18;5.63;;;;;;;2.10;57.35;97822.13;9983869;29;20062;-75
2021/01/17 10:43:55;;;;;;;8.85;6.13;;;;;;;2.29;56.31;97822.69;10290467;24;20034;31
2021/01/17 10:49:18;;;;;;;10.30;6.15;;;;;;;2.16;56.70;97818.00;9960486;29;20066;-77
2021/01/17 10:54:41;;;;;;;12.10;6.38;;;;;;;2.17;57.26;97821.47;9945742;29;20062;-77
2021/01/17 11:00:05;;;;;;;11.27;7.43;;;;;;;2.19;56.24;97825.16;10174133;24;20057;-76
2021/01/17 11:05:26;;;;;;;10.80;7.45;;;;;;;2.24;55.75;97821.56;9946462;29;20394;-77
2021/01/17 11:10:56;;;;;;;10.73;6.93;;;;;;;2.26;56.02;97829.28;9987432;29;20073;-79
2021/01/17 11:16:40;;;;;;;10.52;7.45;;;;;;;2.40;55.34;97838.94;9962958;29;20082;-77
2021/01/17 11:22:00;;;;;;;11.23;6.25;;;;;;;2.51;55.42;97833.19;10088142;24;20141;-79
2021/01/17 12:00:04;;;;;;;8.95;5.15;;;;;;;2.58;52.81;97840.03;11159728;24;20077;-80
2021/01/17 12:11:39;;;;;;;9.93;5.75;;;;;;;2.83;53.14;97845.94;9993247;27;20065;-77
2021/01/17 12:16:59;;;;;;;8.50;5.43;;;;;;;2.86;52.37;97839.34;10001173;24;20122;-79
2021/01/17 12:29:28;;;;;;;9.13;6.10;;;;;;;2.58;52.22;97843.53;12111422;24;20021;31
2021/01/17 12:35:17;;;;;;;10.33;6.67;;;;;;;2.49;51.90;97830.22;11123607;24;20062;-79
2021/01/17 12:40:37;;;;;;;10.75;7.20;;;;;;;2.48;50.95;97831.50;9965228;29;20070;-80
2021/01/17 12:45:58;;;;;;;11.50;7.28;;;;;;;2.52;51.65;97842.19;10005415;29;20493;-77
2021/01/17 12:51:18;;;;;;;12.57;7.75;;;;;;;2.68;50.93;97841.03;9989584;29;20136;-78
2021/01/17 12:56:38;;;;;;;11.70;8.00;;;;;;;2.62;50.84;97843.19;9973639;29;20094;-77
2021/01/17 13:02:03;;;;;;;14.65;8.18;;;;;;;2.41;50.18;97848.69;9987212;29;20203;-77
2021/01/17 13:07:23;;;;;;;9.73;7.07;;;;;;;2.27;51.53;97855.53;9991662;29;20097;-80
2021/01/17 13:40:05;;;;;;;7.75;5.30;;;;;;;1.34;51.55;97872.25;11413967;24;20044;31
2021/01/17 13:52:54;;;;;;;7.75;4.80;;;;;;;1.26;51.57;97868.66;11549746;24;20061;-80
2021/01/17 13:59:43;;;;;;;;;;;;;;;;;;;;;
2021/01/17 14:18:42;;;;;;;6.75;4.68;;;;;;;0.99;51.65;97897.41;9884118;30;20115;-82
2021/01/17 14:44:39;;;;;;;9.95;6.30;;;;;;;-0.48;53.04;97928.19;10672235;24;20103;-82
2021/01/17 14:56:48;;;;;;;11.57;7.70;;;;;;;-0.65;53.23;97944.06;10536441;24;20150;-79
2021/01/17 15:02:08;;;;;;;11.73;7.00;;;;;;;-0.78;53.30;97957.63;9925648;24;20059;-80
2021/01/17 15:07:28;;;;;;;16.02;8.07;;;;;;;-1.00;53.39;97948.38;9904976;30;20063;-81
2021/01/17 15:12:51;;;;;;;14.13;7.25;;;;;;;-1.21;53.62;97955.53;9904708;30;20063;-78
2021/01/17 15:18:11;;;;;;;14.18;8.30;;;;;;;-1.38;54.05;97946.69;9913255;29;20142;-81
2021/01/17 15:23:53;;;;;;;14.55;7.82;;;;;;;-1.52;54.07;97949.28;9881739;28;20115;-77
2021/01/17 15:29:41;;;;;;;14.75;8.18;;;;;;;-1.74;54.44;97965.81;9942547;29;20059;-77
2021/01/17 15:35:17;;;;;;;15.07;8.55;;;;;;;-1.85;55.13;97968.63;10204212;24;20070;-82
2021/01/17 15:54:29;;;;;;;14.63;8.35;;;;;;;-1.77;55.24;97983.25;10379355;24;20084;-79
2021/01/17 15:59:49;;;;;;;13.07;8.10;;;;;;;-1.69;55.75;97986.94;9973318;29;20069;-81
2021/01/17 16:05:12;;;;;;;13.55;8.07;;;;;;;-1.61;55.75;97990.63;10105366;24;20066;-80
2021/01/17 16:10:32;;;;;;;14.15;8.80;;;;;;;-1.47;55.47;97991.53;9962185;29;20069;-78
2021/01/17 16:15:52;;;;;;;13.75;8.40;;;;;;;-1.45;55.83;98000.75;9961912;29;20069;-78
2021/01/17 16:21:12;;;;;;;16.02;8.48;;;;;;;-1.41;55.57;98002.47;9987865;29;20054;-75
2021/01/17 16:26:32;;;;;;;15.23;8.85;;;;;;;-1.37;55.76;98002.94;9973896;29;20062;-76
2021/01/17 16:31:56;;;;;;;11.63;8.07;;;;;;;-1.38;55.78;98010.41;9988218;29;20532;-76
2021/01/17 16:37:22;;;;;;;12.63;7.88;;;;;;;-1.32;55.78;98010.38;9996249;29;20065;-81
2021/01/17 16:42:45;;;;;;;13.45;8.65;;;;;;;-1.37;56.10;98020.09;9986011;29;20069;-78
2021/01/17 16:48:07;;;;;;;15.82;8.70;;;;;;;-1.39;56.40;98021.88;9973703;29;20062;-74
2021/01/17 16:53:27;;;;;;;16.60;9.85;;;;;;;-1.44;55.95;98034.34;9973366;29;20061;-73
2021/01/17 16:58:47;;;;;;;15.93;9.52;;;;;;;-1.52;56.41;98025.94;9948106;29;20070;-72
2021/01/17 17:04:07;;;;;;;18.42;10.35;;;;;;;-1.59;56.73;98026.47;9986104;29;20059;-73
2021/01/17 17:09:31;;;;;;;21.17;12.00;;;;;;;-1.67;56.68;98030.22;9977229;29;20192;-77
2021/01/17 17:14:51;;;;;;;30.48;16.95;;;;;;;-1.78;56.59;98041.97;9969357;29;20062;-79
2021/01/17 17:20:11;;;;;;;22.52;13.07;;;;;;;-1.91;57.02;98039.06;10016493;24;20057;-76
2021/01/17 17:25:31;;;;;;;19.77;11.93;;;;;;;-1.98;57.29;98054.00;9933529;29;20066;-74
2021/01/17 17:30:51;;;;;;;23.63;14.93;;;;;;;-2.03;57.56;98058.25;9986529;29;20070;-76
2021/01/17 17:36:13;;;;;;;23.40;14.13;;;;;;;-1.99;57.54;98059.97;9972094;29;20062;-78
2021/01/17 17:41:36;;;;;;;20.48;12.80;;;;;;;-1.95;58.14;98054.97;9984951;29;20609;-76
2021/01/17 17:47:00;;;;;;;20.95;12.30;;;;;;;-1.96;57.99;98070.66;9985302;29;20066;-76
2021/01/17 17:52:22;;;;;;;17.48;10.80;;;;;;;-1.97;57.45;98074.63;9985398;29;20062;-75
2021/01/17 17:57:41;;;;;;;17.83;10.80;;;;;;;-2.02;57.75;98072.66;9972008;29;20058;-75
2021/01/17 18:03:01;;;;;;;21.88;11.85;;;;;;;-2.18;58.62;98067.97;9985181;29;20094;-77
2021/01/17 18:08:24;;;;;;;17.88;10.43;;;;;;;-2.37;57.93;98075.97;10004221;29;20054;-81
2021/01/17 18:13:44;;;;;;;18.58;10.10;;;;;;;-2.47;58.64;98083.69;10003490;29;20073;-79
2021/01/17 18:19:04;;;;;;;16.85;11.02;;;;;;;-2.55;58.67;98087.41;9997902;29;20070;-80
2021/01/17 18:24:34;;;;;;;22.17;14.57;;;;;;;-2.62;58.71;98083.19;9986276;29;20068;-77
2021/01/17 18:29:54;;;;;;;15.63;9.43;;;;;;;-2.75;58.90;98091.13;9984636;29;20118;-76
2021/01/17 18:35:13;;;;;;;14.48;9.02;;;;;;;-2.81;59.11;98093.84;9969940;29;20074;-78
2021/01/17 18:40:33;;;;;;;15.50;9.20;;;;;;;-2.84;59.31;98094.84;9983851;29;20073;-78
2021/01/17 18:45:53;;;;;;;15.00;9.23;;;;;;;-2.75;58.98;98100.09;9970810;29;20061;-75
2021/01/17 18:51:14;;;;;;;16.38;9.63;;;;;;;-2.69;59.20;98098.09;9986170;29;20062;-75
2021/01/17 18:56:41;;;;;;;19.10;10.45;;;;;;;-2.57;59.26;98109.03;9969515;29;20058;-79
2021/01/17 19:02:01;;;;;;;16.38;10.30;;;;;;;-2.47;59.45;98108.28;9985830;29;20521;-78
2021/01/17 19:07:21;;;;;;;19.55;11.73;;;;;;;-2.38;59.43;98116.22;9991542;29;20145;-80
2021/01/17 19:13:00;;;;;;;18.35;12.00;;;;;;;-2.24;59.39;98119.94;9991125;29;20058;-78
2021/01/17 19:19:40;;;;;;;20.08;11.50;;;;;;;-2.16;59.72;98123.66;9998965;29;20106;-82
2021/01/17 19:25:09;;;;;;;16.60;9.98;;;;;;;-2.09;59.11;98131.38;9929648;29;20418;-81
2021/01/17 19:44:38;;;;;;;18.15;10.68;;;;;;;-1.87;59.49;98129.81;9871702;30;20119;-82
2021/01/17 19:50:19;;;;;;;16.30;10.25;;;;;;;-1.90;59.88;98128.09;9847615;30;20056;-81
2021/01/17 19:55:39;;;;;;;16.02;9.55;;;;;;;-1.95;59.73;98126.13;9846881;30;20088;-79
2021/01/17 20:01:02;;;;;;;14.55;9.35;;;;;;;-2.10;59.47;98137.34;9852507;30;20483;-80
2021/01/17 20:06:39;;;;;;;14.25;8.30;;;;;;;-2.26;59.23;98136.09;9852324;30;20605;-80
2021/01/17 20:12:06;;;;;;;14.07;8.80;;;;;;;-2.37;59.77;98122.44;9843937;30;20067;-79
2021/01/17 20:17:34;;;;;;;17.83;9.70;;;;;;;-2.34;59.59;98132.38;9858598;30;20146;-81
2021/01/17 20:23:35;;;;;;;17.58;11.02;;;;;;;-2.41;60.09;98124.69;9857788;30;20055;-82
2021/01/17 20:29:01;;;;;;;12.75;7.65;;;;;;;-2.51;59.27;98132.41;9852484;30;20114;-79
2021/01/17 20:34:20;;;;;;;12.43;7.82;;;;;;;-2.49;59.57;98135.38;9830186;30;20424;-79
2021/01/17 20:39:41;;;;;;;13.40;8.38;;;;;;;-2.55;59.61;98134.63;9848511;29;20064;-78
2021/01/17 20:45:05;;;;;;;11.48;7.57;;;;;;;-2.57;60.05;98137.13;9883477;30;20091;-81
2021/01/17 20:50:25;;;;;;;12.68;6.90;;;;;;;-2.68;59.95;98135.13;9864404;30;20129;-79
2021/01/17 20:55:59;;;;;;;12.23;7.63;;;;;;;-2.76;60.01;98131.38;9877565;30;20124;-79
2021/01/17 21:01:24;;;;;;;12.60;7.05;;;;;;;-2.71;59.80;98133.34;9881835;30;20063;-79
2021/01/17 21:06:44;;;;;;;10.98;7.43;;;;;;;-2.77;59.91;98132.63;9877017;30;20095;-79
2021/01/17 21:12:04;;;;;;;10.57;7.40;;;;;;;-2.87;59.98;98131.38;9863137;30;20533;-79
2021/01/17 21:17:24;;;;;;;11.50;8.00;;;;;;;-2.94;59.70;98135.31;9878743;30;20096;-79
2021/01/17 21:22:44;;;;;;;12.27;7.80;;;;;;;-3.09;60.05;98131.31;9875030;30;20068;-79
2021/01/17 21:28:07;;;;;;;10.23;7.03;;;;;;;-3.15;60.00;98142.25;9893325;30;20546;-78
2021/01/17 21:33:26;;;;;;;13.43;8.15;;;;;;;-3.10;60.62;98143.47;9825962;30;20581;-78
2021/01/17 21:38:53;;;;;;;12.07;7.45;;;;;;;-3.13;60.03;98147.19;9839895;30;20072;-79
2021/01/17 21:44:13;;;;;;;11.80;7.05;;;;;;;-3.18;59.79;98154.16;9827552;30;20428;-79
2021/01/17 21:49:33;;;;;;;11.48;7.50;;;;;;;-3.27;60.28;98155.13;9839448;30;20068;-79
2021/01/17 21:54:53;;;;;;;11.82;7.03;;;;;;;-3.34;60.36;98155.56;9838147;30;20110;-79
2021/01/17 22:00:20;;;;;;;10.43;6.55;;;;;;;-3.40;60.36;98162.25;9837854;30;20067;-78
2021/01/17 22:05:41;;;;;;;10.73;6.93;;;;;;;-3.39;60.65;98152.81;9812964;30;20520;-78
2021/01/17 22:11:01;;;;;;;11.48;7.13;;;;;;;-3.50;60.50;98162.44;9838641;30;20064;-79
2021/01/17 22:16:20;;;;;;;23.30;10.25;;;;;;;-3.59;60.25;98157.19;9823978;30;20060;-79
2021/01/17 22:21:40;;;;;;;13.10;8.25;;;;;;;-3.72;60.68;98158.88;9824093;30;20098;-79
2021/01/17 22:27:18;;;;;;;9.40;6.20;;;;;;;-3.87;60.78;98170.69;9836459;30;20060;-79
2021/01/17 22:32:48;;;;;;;15.60;8.23;;;;;;;-4.00;60.56;98164.91;9836052;30;20136;-79
2021/01/17 22:38:08;;;;;;;11.10;7.28;;;;;;;-4.18;61.40;98166.03;9823190;30;20389;-78
2021/01/17 22:43:57;;;;;;;12.18;7.10;;;;;;;-4.33;61.03;98171.63;9835746;30;20071;-79
2021/01/17 22:49:18;;;;;;;11.82;7.47;;;;;;;-4.45;61.73;98161.84;9836162;30;20509;-79
2021/01/17 22:54:38;;;;;;;12.20;7.72;;;;;;;-4.60;61.64;98161.25;9836995;30;20064;-79
2021/01/17 23:00:43;;;;;;;12.65;7.80;;;;;;;-4.67;61.68;98158.94;9836281;30;20067;-78
2021/01/17 23:06:17;;;;;;;12.48;7.57;;;;;;;-4.72;61.54;98160.41;9820798;30;20068;-79
2021/01/17 23:11:53;;;;;;;12.13;8.33;;;;;;;-4.78;61.86;98153.41;9824847;30;20067;-79
2021/01/17 23:17:16;;;;;;;14.88;8.68;;;;;;;-4.88;62.08;98147.38;9822771;30;20150;-79
2021/01/17 23:23:06;;;;;;;16.10;8.88;;;;;;;-4.96;61.73;98144.31;9836210;30;20068;-79
2021/01/17 23:29:09;;;;;;;14.38;9.15;;;;;;;-5.00;61.85;98143.78;9822433;30;20075;-78
2021/01/17 23:34:42;;;;;;;13.27;8.80;;;;;;;-5.03;61.77;98127.66;9824063;30;20067;-78
2021/01/17 23:40:11;;;;;;;16.20;8.63;;;;;;;-5.05;61.96;98128.16;9839729;30;20052;-79
2021/01/17 23:45:31;;;;;;;15.48;9.07;;;;;;;-5.08;63.40;98123.66;9829227;30;20114;-79
2021/01/17 23:50:58;;;;;;;16.45;9.50;;;;;;;-5.07;62.59;98122.44;9829778;30;20064;-78
2021/01/17 23:57:03;;;;;;;15.70;9.45;;;;;;;-4.94;62.64;98122.06;9842218;30;20078;-78
